sensor_id;sensor_type;location;lat;lon;timestamp;P1;durP1;ratioP1;P2;durP2;ratioP2
63218;SDS011;49320;52.512;13.448;2023-02-26T00:01:36;1.23;;;1.00;;
63218;SDS011;49320;52.512;13.448;2023-02-26T00:04:05;2.05;;;1.10;;
63218;SDS011;49320;52.512;13.448;2023-02-26T00:06:34;1.88;;;1.02;;
63218;SDS011;49320;52.512;13.448;2023-02-26T00:09:04;2.40;;;1.10;;
63218;SDS011;49320;52.512;13.448;2023-02-26T00:11:32;2.15;;;1.00;;
63218;SDS011;49320;52.512;13.448;2023-02-26T00:13:59;1.70;;;0.90;;
63218;SDS011;49320;52.512;13.448;2023-02-26T00:19:03;2.65;;;1.08;;
63218;SDS011;49320;52.512;13.448;2023-02-26T00:21:32;2.03;;;1.00;;
63218;SDS011;49320;52.512;13.448;2023-02-26T00:24:01;1.75;;;1.10;;
63218;SDS011;49320;52.512;13.448;2023-02-26T00:26:29;2.05;;;1.02;;
63218;SDS011;49320;52.512;13.448;2023-02-26T00:28:57;1.77;;;1.00;;
63218;SDS011;49320;52.512;13.448;2023-02-26T00:31:24;2.13;;;1.25;;
63218;SDS011;49320;52.512;13.448;2023-02-26T00:33:52;2.63;;;1.20;;
63218;SDS011;49320;52.512;13.448;2023-02-26T00:36:32;3.72;;;1.30;;
63218;SDS011;49320;52.512;13.448;2023-02-26T00:39:25;1.50;;;1.10;;
63218;SDS011;49320;52.512;13.448;2023-02-26T00:42:12;2.20;;;1.20;;
63218;SDS011;49320;52.512;13.448;2023-02-26T00:44:39;1.38;;;1.02;;
63218;SDS011;49320;52.512;13.448;2023-02-26T00:47:15;2.58;;;1.15;;
63218;SDS011;49320;52.512;13.448;2023-02-26T00:55:45;1.95;;;0.98;;
63218;SDS011;49320;52.512;13.448;2023-02-26T00:58:11;1.33;;;1.05;;
63218;SDS011;49320;52.512;13.448;2023-02-26T01:00:38;2.50;;;1.00;;
63218;SDS011;49320;52.512;13.448;2023-02-26T01:03:05;3.10;;;1.05;;
63218;SDS011;49320;52.512;13.448;2023-02-26T01:05:32;1.13;;;0.82;;
63218;SDS011;49320;52.512;13.448;2023-02-26T01:08:01;1.63;;;1.08;;
63218;SDS011;49320;52.512;13.448;2023-02-26T01:13:01;1.85;;;1.10;;
63218;SDS011;49320;52.512;13.448;2023-02-26T01:15:28;1.73;;;1.00;;
63218;SDS011;49320;52.512;13.448;2023-02-26T01:18:06;2.45;;;1.00;;
63218;SDS011;49320;52.512;13.448;2023-02-26T01:20:55;1.45;;;1.05;;
63218;SDS011;49320;52.512;13.448;2023-02-26T01:23:31;1.58;;;1.10;;
63218;SDS011;49320;52.512;13.448;2023-02-26T01:26:05;2.95;;;1.42;;
63218;SDS011;49320;52.512;13.448;2023-02-26T01:28:43;1.85;;;1.20;;
63218;SDS011;49320;52.512;13.448;2023-02-26T01:31:15;3.05;;;1.27;;
63218;SDS011;49320;52.512;13.448;2023-02-26T01:33:59;1.63;;;0.88;;
63218;SDS011;49320;52.512;13.448;2023-02-26T01:36:42;2.05;;;0.90;;
63218;SDS011;49320;52.512;13.448;2023-02-26T01:43:09;1.73;;;0.98;;
63218;SDS011;49320;52.512;13.448;2023-02-26T01:45:54;1.83;;;1.00;;
63218;SDS011;49320;52.512;13.448;2023-02-26T01:54:12;2.13;;;0.90;;
63218;SDS011;49320;52.512;13.448;2023-02-26T01:56:46;1.35;;;0.90;;
63218;SDS011;49320;52.512;13.448;2023-02-26T01:59:18;1.98;;;0.80;;
63218;SDS011;49320;52.512;13.448;2023-02-26T02:01:53;4.82;;;1.00;;
63218;SDS011;49320;52.512;13.448;2023-02-26T02:06:52;1.63;;;0.80;;
63218;SDS011;49320;52.512;13.448;2023-02-26T02:09:20;2.25;;;1.00;;
63218;SDS011;49320;52.512;13.448;2023-02-26T02:11:55;1.50;;;0.75;;
63218;SDS011;49320;52.512;13.448;2023-02-26T02:14:45;2.13;;;1.00;;
63218;SDS011;49320;52.512;13.448;2023-02-26T02:17:49;2.13;;;0.80;;
63218;SDS011;49320;52.512;13.448;2023-02-26T02:20:56;1.80;;;1.00;;
63218;SDS011;49320;52.512;13.448;2023-02-26T02:24:05;3.30;;;0.98;;
63218;SDS011;49320;52.512;13.448;2023-02-26T02:26:43;2.47;;;1.10;;
63218;SDS011;49320;52.512;13.448;2023-02-26T02:32:32;1.05;;;0.95;;
63218;SDS011;49320;52.512;13.448;2023-02-26T02:35:17;2.15;;;1.02;;
63218;SDS011;49320;52.512;13.448;2023-02-26T02:38:17;2.25;;;1.17;;
63218;SDS011;49320;52.512;13.448;2023-02-26T02:41:04;1.00;;;0.70;;
63218;SDS011;49320;52.512;13.448;2023-02-26T02:43:44;1.52;;;0.93;;
63218;SDS011;49320;52.512;13.448;2023-02-26T02:46:16;2.67;;;1.20;;
63218;SDS011;49320;52.512;13.448;2023-02-26T02:48:55;3.45;;;1.33;;
63218;SDS011;49320;52.512;13.448;2023-02-26T02:51:38;2.42;;;1.10;;
63218;SDS011;49320;52.512;13.448;2023-02-26T02:54:15;1.90;;;0.90;;
63218;SDS011;49320;52.512;13.448;2023-02-26T02:56:55;3.33;;;1.23;;
63218;SDS011;49320;52.512;13.448;2023-02-26T02:59:42;2.13;;;0.90;;
63218;SDS011;49320;52.512;13.448;2023-02-26T03:02:13;2.05;;;1.15;;
63218;SDS011;49320;52.512;13.448;2023-02-26T03:04:53;2.50;;;0.90;;
63218;SDS011;49320;52.512;13.448;2023-02-26T03:07:20;2.63;;;1.17;;
63218;SDS011;49320;52.512;13.448;2023-02-26T03:09:47;1.27;;;0.80;;
63218;SDS011;49320;52.512;13.448;2023-02-26T03:12:14;1.67;;;0.88;;
63218;SDS011;49320;52.512;13.448;2023-02-26T03:14:41;2.97;;;1.15;;
63218;SDS011;49320;52.512;13.448;2023-02-26T03:17:26;1.25;;;0.80;;
63218;SDS011;49320;52.512;13.448;2023-02-26T03:23:00;1.67;;;1.03;;
63218;SDS011;49320;52.512;13.448;2023-02-26T03:25:48;2.25;;;1.10;;
63218;SDS011;49320;52.512;13.448;2023-02-26T03:28:47;1.52;;;0.75;;
63218;SDS011;49320;52.512;13.448;2023-02-26T03:32:10;1.10;;;0.70;;
63218;SDS011;49320;52.512;13.448;2023-02-26T03:34:34;2.33;;;1.00;;
63218;SDS011;49320;52.512;13.448;2023-02-26T03:39:52;0.95;;;0.80;;
63218;SDS011;49320;52.512;13.448;2023-02-26T03:42:25;1.63;;;0.82;;
63218;SDS011;49320;52.512;13.448;2023-02-26T03:45:03;1.13;;;0.80;;
63218;SDS011;49320;52.512;13.448;2023-02-26T03:47:36;1.13;;;0.70;;
63218;SDS011;49320;52.512;13.448;2023-02-26T03:52:47;1.73;;;0.80;;
63218;SDS011;49320;52.512;13.448;2023-02-26T03:55:18;3.47;;;0.90;;
63218;SDS011;49320;52.512;13.448;2023-02-26T03:58:06;1.92;;;0.98;;
63218;SDS011;49320;52.512;13.448;2023-02-26T04:00:33;1.52;;;0.85;;
63218;SDS011;49320;52.512;13.448;2023-02-26T04:03:10;1.65;;;0.77;;
63218;SDS011;49320;52.512;13.448;2023-02-26T04:06:00;1.45;;;0.63;;
63218;SDS011;49320;52.512;13.448;2023-02-26T04:08:29;4.25;;;1.00;;
63218;SDS011;49320;52.512;13.448;2023-02-26T04:10:57;1.60;;;0.85;;
63218;SDS011;49320;52.512;13.448;2023-02-26T04:13:32;3.15;;;1.30;;
63218;SDS011;49320;52.512;13.448;2023-02-26T04:15:58;2.10;;;1.02;;
63218;SDS011;49320;52.512;13.448;2023-02-26T04:18:25;2.08;;;0.75;;
63218;SDS011;49320;52.512;13.448;2023-02-26T04:20:52;2.03;;;0.95;;
63218;SDS011;49320;52.512;13.448;2023-02-26T04:23:19;1.67;;;0.80;;
63218;SDS011;49320;52.512;13.448;2023-02-26T04:25:47;2.03;;;1.00;;
63218;SDS011;49320;52.512;13.448;2023-02-26T04:28:13;2.35;;;0.80;;
63218;SDS011;49320;52.512;13.448;2023-02-26T04:30:40;1.90;;;0.90;;
63218;SDS011;49320;52.512;13.448;2023-02-26T04:33:07;2.22;;;0.90;;
63218;SDS011;49320;52.512;13.448;2023-02-26T04:35:34;1.48;;;0.95;;
63218;SDS011;49320;52.512;13.448;2023-02-26T04:38:01;2.25;;;0.90;;
63218;SDS011;49320;52.512;13.448;2023-02-26T04:40:28;3.72;;;1.10;;
63218;SDS011;49320;52.512;13.448;2023-02-26T04:42:54;2.17;;;1.08;;
63218;SDS011;49320;52.512;13.448;2023-02-26T04:45:21;1.63;;;0.93;;
63218;SDS011;49320;52.512;13.448;2023-02-26T04:47:48;2.90;;;1.02;;
63218;SDS011;49320;52.512;13.448;2023-02-26T04:50:15;1.65;;;1.05;;
63218;SDS011;49320;52.512;13.448;2023-02-26T04:52:42;2.15;;;0.98;;
63218;SDS011;49320;52.512;13.448;2023-02-26T04:55:09;2.20;;;1.08;;
63218;SDS011;49320;52.512;13.448;2023-02-26T04:57:35;2.03;;;1.10;;
63218;SDS011;49320;52.512;13.448;2023-02-26T05:00:03;2.10;;;0.90;;
63218;SDS011;49320;52.512;13.448;2023-02-26T05:02:33;2.55;;;0.98;;
63218;SDS011;49320;52.512;13.448;2023-02-26T05:04:59;2.30;;;1.00;;
63218;SDS011;49320;52.512;13.448;2023-02-26T05:07:27;2.75;;;1.00;;
63218;SDS011;49320;52.512;13.448;2023-02-26T05:09:54;2.00;;;1.00;;
63218;SDS011;49320;52.512;13.448;2023-02-26T05:12:21;1.65;;;0.80;;
63218;SDS011;49320;52.512;13.448;2023-02-26T05:14:47;1.20;;;0.80;;
63218;SDS011;49320;52.512;13.448;2023-02-26T05:17:14;1.67;;;0.90;;
63218;SDS011;49320;52.512;13.448;2023-02-26T05:19:41;3.63;;;1.00;;
63218;SDS011;49320;52.512;13.448;2023-02-26T05:22:08;2.08;;;1.10;;
63218;SDS011;49320;52.512;13.448;2023-02-26T05:24:34;1.67;;;0.90;;
63218;SDS011;49320;52.512;13.448;2023-02-26T05:27:01;3.55;;;1.10;;
63218;SDS011;49320;52.512;13.448;2023-02-26T05:29:28;1.25;;;0.80;;
63218;SDS011;49320;52.512;13.448;2023-02-26T05:31:55;2.45;;;1.10;;
63218;SDS011;49320;52.512;13.448;2023-02-26T05:34:22;1.27;;;0.75;;
63218;SDS011;49320;52.512;13.448;2023-02-26T05:36:49;2.65;;;1.08;;
63218;SDS011;49320;52.512;13.448;2023-02-26T05:39:16;2.10;;;0.82;;
63218;SDS011;49320;52.512;13.448;2023-02-26T05:41:43;4.40;;;1.13;;
63218;SDS011;49320;52.512;13.448;2023-02-26T05:44:11;2.60;;;1.10;;
63218;SDS011;49320;52.512;13.448;2023-02-26T05:46:38;1.95;;;1.00;;
63218;SDS011;49320;52.512;13.448;2023-02-26T05:49:05;2.88;;;0.82;;
63218;SDS011;49320;52.512;13.448;2023-02-26T05:51:32;2.03;;;0.88;;
63218;SDS011;49320;52.512;13.448;2023-02-26T05:53:59;2.25;;;1.20;;
63218;SDS011;49320;52.512;13.448;2023-02-26T05:56:26;2.33;;;0.93;;
63218;SDS011;49320;52.512;13.448;2023-02-26T05:58:52;1.73;;;0.85;;
63218;SDS011;49320;52.512;13.448;2023-02-26T06:01:20;2.13;;;0.93;;
63218;SDS011;49320;52.512;13.448;2023-02-26T06:03:47;2.05;;;0.90;;
63218;SDS011;49320;52.512;13.448;2023-02-26T06:06:14;3.17;;;0.90;;
63218;SDS011;49320;52.512;13.448;2023-02-26T06:08:43;1.42;;;0.80;;
63218;SDS011;49320;52.512;13.448;2023-02-26T06:11:11;1.73;;;0.85;;
63218;SDS011;49320;52.512;13.448;2023-02-26T06:13:38;1.75;;;0.90;;
63218;SDS011;49320;52.512;13.448;2023-02-26T06:16:05;3.33;;;1.38;;
63218;SDS011;49320;52.512;13.448;2023-02-26T06:18:32;1.48;;;0.90;;
63218;SDS011;49320;52.512;13.448;2023-02-26T06:20:59;2.72;;;0.98;;
63218;SDS011;49320;52.512;13.448;2023-02-26T06:23:26;2.70;;;1.10;;
63218;SDS011;49320;52.512;13.448;2023-02-26T06:25:54;1.95;;;0.80;;
63218;SDS011;49320;52.512;13.448;2023-02-26T06:28:21;1.27;;;0.90;;
63218;SDS011;49320;52.512;13.448;2023-02-26T06:30:50;1.23;;;0.70;;
63218;SDS011;49320;52.512;13.448;2023-02-26T06:33:20;1.92;;;1.02;;
63218;SDS011;49320;52.512;13.448;2023-02-26T06:35:46;5.22;;;1.30;;
63218;SDS011;49320;52.512;13.448;2023-02-26T06:38:14;1.63;;;0.95;;
63218;SDS011;49320;52.512;13.448;2023-02-26T06:40:41;1.70;;;0.85;;
63218;SDS011;49320;52.512;13.448;2023-02-26T06:43:09;3.47;;;1.05;;
63218;SDS011;49320;52.512;13.448;2023-02-26T06:45:36;2.95;;;1.10;;
63218;SDS011;49320;52.512;13.448;2023-02-26T06:48:03;2.38;;;0.90;;
63218;SDS011;49320;52.512;13.448;2023-02-26T06:50:31;2.05;;;0.77;;
63218;SDS011;49320;52.512;13.448;2023-02-26T06:52:57;2.60;;;1.10;;
63218;SDS011;49320;52.512;13.448;2023-02-26T06:55:24;2.05;;;1.08;;
63218;SDS011;49320;52.512;13.448;2023-02-26T06:57:54;1.92;;;0.88;;
63218;SDS011;49320;52.512;13.448;2023-02-26T07:00:23;2.33;;;1.20;;
63218;SDS011;49320;52.512;13.448;2023-02-26T07:02:51;2.05;;;1.00;;
63218;SDS011;49320;52.512;13.448;2023-02-26T07:05:18;1.35;;;0.90;;
63218;SDS011;49320;52.512;13.448;2023-02-26T07:07:45;1.55;;;1.02;;
63218;SDS011;49320;52.512;13.448;2023-02-26T07:10:12;1.05;;;0.77;;
63218;SDS011;49320;52.512;13.448;2023-02-26T07:12:39;2.63;;;1.00;;
63218;SDS011;49320;52.512;13.448;2023-02-26T07:15:06;2.83;;;1.00;;
63218;SDS011;49320;52.512;13.448;2023-02-26T07:17:33;2.03;;;1.00;;
63218;SDS011;49320;52.512;13.448;2023-02-26T07:20:00;1.77;;;1.00;;
63218;SDS011;49320;52.512;13.448;2023-02-26T07:22:31;1.67;;;1.00;;
63218;SDS011;49320;52.512;13.448;2023-02-26T07:24:59;2.03;;;1.10;;
63218;SDS011;49320;52.512;13.448;2023-02-26T07:27:25;2.20;;;0.90;;
63218;SDS011;49320;52.512;13.448;2023-02-26T07:29:52;1.90;;;1.00;;
63218;SDS011;49320;52.512;13.448;2023-02-26T07:32:19;1.60;;;0.88;;
63218;SDS011;49320;52.512;13.448;2023-02-26T07:34:47;3.22;;;1.27;;
63218;SDS011;49320;52.512;13.448;2023-02-26T07:37:13;2.10;;;0.82;;
63218;SDS011;49320;52.512;13.448;2023-02-26T07:39:41;1.52;;;1.00;;
63218;SDS011;49320;52.512;13.448;2023-02-26T07:42:08;2.13;;;0.88;;
63218;SDS011;49320;52.512;13.448;2023-02-26T07:44:34;2.47;;;0.95;;
63218;SDS011;49320;52.512;13.448;2023-02-26T07:47:01;1.33;;;1.00;;
63218;SDS011;49320;52.512;13.448;2023-02-26T07:49:29;3.17;;;1.33;;
63218;SDS011;49320;52.512;13.448;2023-02-26T07:51:57;2.53;;;1.02;;
63218;SDS011;49320;52.512;13.448;2023-02-26T07:54:25;2.65;;;1.00;;
63218;SDS011;49320;52.512;13.448;2023-02-26T07:56:52;4.00;;;1.10;;
63218;SDS011;49320;52.512;13.448;2023-02-26T07:59:19;1.73;;;0.75;;
63218;SDS011;49320;52.512;13.448;2023-02-26T08:01:46;3.25;;;1.42;;
63218;SDS011;49320;52.512;13.448;2023-02-26T08:04:13;2.85;;;1.17;;
63218;SDS011;49320;52.512;13.448;2023-02-26T08:06:40;3.05;;;1.13;;
63218;SDS011;49320;52.512;13.448;2023-02-26T08:09:07;4.47;;;1.02;;
63218;SDS011;49320;52.512;13.448;2023-02-26T08:11:34;2.53;;;1.10;;
63218;SDS011;49320;52.512;13.448;2023-02-26T08:14:05;2.92;;;1.02;;
63218;SDS011;49320;52.512;13.448;2023-02-26T08:16:32;2.03;;;1.10;;
63218;SDS011;49320;52.512;13.448;2023-02-26T08:18:59;3.90;;;1.17;;
63218;SDS011;49320;52.512;13.448;2023-02-26T08:21:26;2.63;;;1.00;;
63218;SDS011;49320;52.512;13.448;2023-02-26T08:23:53;1.08;;;0.77;;
63218;SDS011;49320;52.512;13.448;2023-02-26T08:26:20;3.42;;;1.33;;
63218;SDS011;49320;52.512;13.448;2023-02-26T08:28:47;2.65;;;1.30;;
63218;SDS011;49320;52.512;13.448;2023-02-26T08:31:14;2.53;;;1.10;;
63218;SDS011;49320;52.512;13.448;2023-02-26T08:33:42;1.88;;;0.90;;
63218;SDS011;49320;52.512;13.448;2023-02-26T08:36:09;3.08;;;1.10;;
63218;SDS011;49320;52.512;13.448;2023-02-26T08:38:36;3.25;;;1.20;;
63218;SDS011;49320;52.512;13.448;2023-02-26T08:41:04;2.75;;;1.02;;
63218;SDS011;49320;52.512;13.448;2023-02-26T08:43:31;3.05;;;1.00;;
63218;SDS011;49320;52.512;13.448;2023-02-26T08:45:58;4.07;;;1.05;;
63218;SDS011;49320;52.512;13.448;2023-02-26T08:48:25;3.95;;;1.35;;
63218;SDS011;49320;52.512;13.448;2023-02-26T08:50:52;1.63;;;0.88;;
63218;SDS011;49320;52.512;13.448;2023-02-26T08:53:19;3.13;;;1.30;;
63218;SDS011;49320;52.512;13.448;2023-02-26T08:55:46;2.58;;;1.23;;
63218;SDS011;49320;52.512;13.448;2023-02-26T08:58:15;3.28;;;1.05;;
63218;SDS011;49320;52.512;13.448;2023-02-26T09:00:42;1.90;;;1.05;;
63218;SDS011;49320;52.512;13.448;2023-02-26T09:03:09;2.33;;;1.00;;
63218;SDS011;49320;52.512;13.448;2023-02-26T09:05:36;2.60;;;1.00;;
63218;SDS011;49320;52.512;13.448;2023-02-26T09:08:03;4.63;;;1.30;;
63218;SDS011;49320;52.512;13.448;2023-02-26T09:10:30;2.58;;;1.02;;
63218;SDS011;49320;52.512;13.448;2023-02-26T09:12:57;1.75;;;1.00;;
63218;SDS011;49320;52.512;13.448;2023-02-26T09:15:24;2.72;;;1.20;;
63218;SDS011;49320;52.512;13.448;2023-02-26T09:17:51;1.95;;;0.80;;
63218;SDS011;49320;52.512;13.448;2023-02-26T09:20:18;2.60;;;1.20;;
63218;SDS011;49320;52.512;13.448;2023-02-26T09:22:45;2.42;;;1.20;;
63218;SDS011;49320;52.512;13.448;2023-02-26T09:25:12;2.28;;;1.10;;
63218;SDS011;49320;52.512;13.448;2023-02-26T09:27:40;2.38;;;1.10;;
63218;SDS011;49320;52.512;13.448;2023-02-26T09:30:07;2.83;;;1.13;;
63218;SDS011;49320;52.512;13.448;2023-02-26T09:32:35;2.15;;;1.00;;
63218;SDS011;49320;52.512;13.448;2023-02-26T09:35:03;2.17;;;1.10;;
63218;SDS011;49320;52.512;13.448;2023-02-26T09:37:30;2.15;;;1.20;;
63218;SDS011;49320;52.512;13.448;2023-02-26T09:39:57;1.58;;;1.23;;
63218;SDS011;49320;52.512;13.448;2023-02-26T09:45:37;1.90;;;0.80;;
63218;SDS011;49320;52.512;13.448;2023-02-26T09:48:10;2.20;;;1.00;;
63218;SDS011;49320;52.512;13.448;2023-02-26T09:50:45;2.83;;;1.25;;
63218;SDS011;49320;52.512;13.448;2023-02-26T09:53:17;2.60;;;1.10;;
63218;SDS011;49320;52.512;13.448;2023-02-26T09:55:51;2.60;;;0.82;;
63218;SDS011;49320;52.512;13.448;2023-02-26T09:58:27;1.90;;;0.90;;
63218;SDS011;49320;52.512;13.448;2023-02-26T10:06:50;1.55;;;0.85;;
63218;SDS011;49320;52.512;13.448;2023-02-26T10:09:48;2.45;;;1.00;;
63218;SDS011;49320;52.512;13.448;2023-02-26T10:12:41;2.20;;;1.20;;
63218;SDS011;49320;52.512;13.448;2023-02-26T10:20:39;1.50;;;0.90;;
63218;SDS011;49320;52.512;13.448;2023-02-26T10:23:31;1.55;;;0.80;;
63218;SDS011;49320;52.512;13.448;2023-02-26T10:31:56;2.80;;;1.10;;
63218;SDS011;49320;52.512;13.448;2023-02-26T10:34:53;1.55;;;1.00;;
63218;SDS011;49320;52.512;13.448;2023-02-26T10:37:33;1.83;;;1.00;;
63218;SDS011;49320;52.512;13.448;2023-02-26T10:40:36;1.60;;;0.98;;
63218;SDS011;49320;52.512;13.448;2023-02-26T10:43:18;2.55;;;1.00;;
63218;SDS011;49320;52.512;13.448;2023-02-26T10:46:11;3.17;;;1.15;;
63218;SDS011;49320;52.512;13.448;2023-02-26T10:51:54;3.05;;;1.33;;
63218;SDS011;49320;52.512;13.448;2023-02-26T10:54:33;1.73;;;0.90;;
63218;SDS011;49320;52.512;13.448;2023-02-26T10:57:08;1.67;;;1.00;;
63218;SDS011;49320;52.512;13.448;2023-02-26T10:59:48;1.27;;;0.90;;
63218;SDS011;49320;52.512;13.448;2023-02-26T11:02:25;1.65;;;0.80;;
63218;SDS011;49320;52.512;13.448;2023-02-26T11:05:06;2.35;;;1.00;;
63218;SDS011;49320;52.512;13.448;2023-02-26T11:07:42;1.70;;;1.20;;
63218;SDS011;49320;52.512;13.448;2023-02-26T11:10:22;1.30;;;0.95;;
63218;SDS011;49320;52.512;13.448;2023-02-26T11:12:57;1.42;;;0.90;;
63218;SDS011;49320;52.512;13.448;2023-02-26T11:15:24;2.45;;;0.90;;
63218;SDS011;49320;52.512;13.448;2023-02-26T11:17:53;0.88;;;0.80;;
63218;SDS011;49320;52.512;13.448;2023-02-26T11:20:29;1.88;;;0.90;;
63218;SDS011;49320;52.512;13.448;2023-02-26T11:23:03;2.13;;;0.80;;
63218;SDS011;49320;52.512;13.448;2023-02-26T11:25:37;2.75;;;0.93;;
63218;SDS011;49320;52.512;13.448;2023-02-26T11:28:09;1.25;;;0.77;;
63218;SDS011;49320;52.512;13.448;2023-02-26T11:30:46;1.17;;;0.80;;
63218;SDS011;49320;52.512;13.448;2023-02-26T11:33:20;1.65;;;0.95;;
63218;SDS011;49320;52.512;13.448;2023-02-26T11:36:05;1.73;;;1.02;;
63218;SDS011;49320;52.512;13.448;2023-02-26T11:38:43;1.60;;;0.95;;
63218;SDS011;49320;52.512;13.448;2023-02-26T11:41:12;2.30;;;0.90;;
63218;SDS011;49320;52.512;13.448;2023-02-26T11:43:41;2.13;;;0.80;;
63218;SDS011;49320;52.512;13.448;2023-02-26T11:46:11;1.30;;;0.80;;
63218;SDS011;49320;52.512;13.448;2023-02-26T11:48:46;0.68;;;0.60;;
63218;SDS011;49320;52.512;13.448;2023-02-26T11:51:17;1.63;;;1.05;;
63218;SDS011;49320;52.512;13.448;2023-02-26T11:53:53;2.50;;;1.20;;
63218;SDS011;49320;52.512;13.448;2023-02-26T11:56:31;2.10;;;1.00;;
63218;SDS011;49320;52.512;13.448;2023-02-26T11:59:06;2.83;;;1.10;;
63218;SDS011;49320;52.512;13.448;2023-02-26T12:01:45;2.45;;;1.17;;
63218;SDS011;49320;52.512;13.448;2023-02-26T12:04:17;3.17;;;1.00;;
63218;SDS011;49320;52.512;13.448;2023-02-26T12:06:53;1.88;;;1.00;;
63218;SDS011;49320;52.512;13.448;2023-02-26T12:09:21;2.55;;;1.00;;
63218;SDS011;49320;52.512;13.448;2023-02-26T12:17:57;1.98;;;1.02;;
63218;SDS011;49320;52.512;13.448;2023-02-26T12:20:40;1.35;;;0.90;;
63218;SDS011;49320;52.512;13.448;2023-02-26T12:26:30;3.15;;;1.20;;
63218;SDS011;49320;52.512;13.448;2023-02-26T12:29:22;1.85;;;0.93;;
63218;SDS011;49320;52.512;13.448;2023-02-26T12:32:32;1.33;;;0.80;;
63218;SDS011;49320;52.512;13.448;2023-02-26T12:44:56;1.80;;;0.93;;
63218;SDS011;49320;52.512;13.448;2023-02-26T12:50:33;2.10;;;1.00;;
63218;SDS011;49320;52.512;13.448;2023-02-26T12:53:43;3.13;;;1.10;;
63218;SDS011;49320;52.512;13.448;2023-02-26T12:56:51;3.63;;;1.00;;
63218;SDS011;49320;52.512;13.448;2023-02-26T12:59:50;1.77;;;0.93;;
63218;SDS011;49320;52.512;13.448;2023-02-26T13:02:47;2.03;;;0.93;;
63218;SDS011;49320;52.512;13.448;2023-02-26T13:09:09;1.33;;;0.80;;
63218;SDS011;49320;52.512;13.448;2023-02-26T13:12:06;1.10;;;0.80;;
63218;SDS011;49320;52.512;13.448;2023-02-26T13:17:46;2.15;;;0.75;;
63218;SDS011;49320;52.512;13.448;2023-02-26T13:20:32;2.45;;;0.70;;
63218;SDS011;49320;52.512;13.448;2023-02-26T13:23:03;1.17;;;0.75;;
63218;SDS011;49320;52.512;13.448;2023-02-26T13:25:46;3.28;;;1.15;;
63218;SDS011;49320;52.512;13.448;2023-02-26T13:29:03;1.70;;;0.88;;
63218;SDS011;49320;52.512;13.448;2023-02-26T13:32:01;1.25;;;0.80;;
63218;SDS011;49320;52.512;13.448;2023-02-26T13:34:43;1.15;;;0.93;;
63218;SDS011;49320;52.512;13.448;2023-02-26T13:37:28;2.45;;;1.15;;
63218;SDS011;49320;52.512;13.448;2023-02-26T13:43:09;1.75;;;0.90;;
63218;SDS011;49320;52.512;13.448;2023-02-26T13:48:52;1.17;;;0.80;;
63218;SDS011;49320;52.512;13.448;2023-02-26T13:54:17;2.05;;;0.80;;
63218;SDS011;49320;52.512;13.448;2023-02-26T13:57:24;2.67;;;0.90;;
63218;SDS011;49320;52.512;13.448;2023-02-26T14:14:04;1.65;;;0.90;;
63218;SDS011;49320;52.512;13.448;2023-02-26T14:16:38;1.27;;;0.80;;
63218;SDS011;49320;52.512;13.448;2023-02-26T14:22:22;1.35;;;0.77;;
63218;SDS011;49320;52.512;13.448;2023-02-26T14:27:48;1.65;;;0.80;;
63218;SDS011;49320;52.512;13.448;2023-02-26T14:30:26;1.08;;;0.70;;
63218;SDS011;49320;52.512;13.448;2023-02-26T14:37:58;1.90;;;0.88;;
63218;SDS011;49320;52.512;13.448;2023-02-26T14:40:33;1.38;;;1.00;;
63218;SDS011;49320;52.512;13.448;2023-02-26T14:43:09;1.40;;;0.98;;
63218;SDS011;49320;52.512;13.448;2023-02-26T14:48:30;0.90;;;0.70;;
63218;SDS011;49320;52.512;13.448;2023-02-26T14:51:06;1.83;;;1.00;;
63218;SDS011;49320;52.512;13.448;2023-02-26T14:54:10;1.00;;;0.70;;
63218;SDS011;49320;52.512;13.448;2023-02-26T15:00:24;2.53;;;0.70;;
63218;SDS011;49320;52.512;13.448;2023-02-26T15:12:49;1.92;;;0.90;;
63218;SDS011;49320;52.512;13.448;2023-02-26T15:15:44;0.98;;;0.82;;
63218;SDS011;49320;52.512;13.448;2023-02-26T15:24:15;1.00;;;0.80;;
63218;SDS011;49320;52.512;13.448;2023-02-26T15:26:46;1.33;;;0.60;;
63218;SDS011;49320;52.512;13.448;2023-02-26T15:29:20;1.02;;;0.70;;
63218;SDS011;49320;52.512;13.448;2023-02-26T15:31:55;1.85;;;0.73;;
63218;SDS011;49320;52.512;13.448;2023-02-26T15:34:30;1.42;;;0.70;;
63218;SDS011;49320;52.512;13.448;2023-02-26T15:36:59;1.27;;;0.73;;
63218;SDS011;49320;52.512;13.448;2023-02-26T15:39:26;1.27;;;0.80;;
63218;SDS011;49320;52.512;13.448;2023-02-26T15:41:53;3.45;;;0.68;;
63218;SDS011;49320;52.512;13.448;2023-02-26T15:44:22;1.23;;;0.80;;
63218;SDS011;49320;52.512;13.448;2023-02-26T15:46:57;0.93;;;0.70;;
63218;SDS011;49320;52.512;13.448;2023-02-26T15:49:38;1.13;;;0.70;;
63218;SDS011;49320;52.512;13.448;2023-02-26T15:52:11;1.10;;;0.60;;
63218;SDS011;49320;52.512;13.448;2023-02-26T15:54:51;0.60;;;0.60;;
63218;SDS011;49320;52.512;13.448;2023-02-26T15:57:25;1.20;;;1.00;;
63218;SDS011;49320;52.512;13.448;2023-02-26T15:59:59;0.90;;;0.80;;
63218;SDS011;49320;52.512;13.448;2023-02-26T16:02:42;0.98;;;0.80;;
63218;SDS011;49320;52.512;13.448;2023-02-26T16:05:11;1.58;;;0.82;;
63218;SDS011;49320;52.512;13.448;2023-02-26T16:07:41;1.77;;;1.08;;
63218;SDS011;49320;52.512;13.448;2023-02-26T16:10:25;1.77;;;0.90;;
63218;SDS011;49320;52.512;13.448;2023-02-26T16:12:59;1.98;;;1.05;;
63218;SDS011;49320;52.512;13.448;2023-02-26T16:15:30;1.58;;;0.75;;
63218;SDS011;49320;52.512;13.448;2023-02-26T16:18:06;0.70;;;0.70;;
63218;SDS011;49320;52.512;13.448;2023-02-26T16:20:41;1.67;;;0.82;;
63218;SDS011;49320;52.512;13.448;2023-02-26T16:23:16;1.15;;;0.70;;
63218;SDS011;49320;52.512;13.448;2023-02-26T16:25:52;1.83;;;0.90;;
63218;SDS011;49320;52.512;13.448;2023-02-26T16:28:29;1.48;;;0.85;;
63218;SDS011;49320;52.512;13.448;2023-02-26T16:31:03;1.50;;;1.10;;
63218;SDS011;49320;52.512;13.448;2023-02-26T16:33:33;3.55;;;1.45;;
63218;SDS011;49320;52.512;13.448;2023-02-26T16:36:05;2.40;;;1.40;;
63218;SDS011;49320;52.512;13.448;2023-02-26T16:41:11;2.22;;;1.05;;
63218;SDS011;49320;52.512;13.448;2023-02-26T16:46:16;1.45;;;1.10;;
63218;SDS011;49320;52.512;13.448;2023-02-26T16:49:13;1.92;;;1.20;;
63218;SDS011;49320;52.512;13.448;2023-02-26T16:51:52;2.72;;;1.40;;
63218;SDS011;49320;52.512;13.448;2023-02-26T16:54:32;2.13;;;1.30;;
63218;SDS011;49320;52.512;13.448;2023-02-26T16:57:12;1.67;;;1.15;;
63218;SDS011;49320;52.512;13.448;2023-02-26T16:59:47;2.80;;;1.40;;
63218;SDS011;49320;52.512;13.448;2023-02-26T17:02:20;2.00;;;1.27;;
63218;SDS011;49320;52.512;13.448;2023-02-26T17:04:56;2.38;;;1.15;;
63218;SDS011;49320;52.512;13.448;2023-02-26T17:07:32;2.97;;;1.60;;
63218;SDS011;49320;52.512;13.448;2023-02-26T17:10:14;3.65;;;2.22;;
63218;SDS011;49320;52.512;13.448;2023-02-26T17:15:45;2.53;;;1.58;;
63218;SDS011;49320;52.512;13.448;2023-02-26T17:18:12;4.75;;;2.45;;
63218;SDS011;49320;52.512;13.448;2023-02-26T17:20:39;3.33;;;1.92;;
63218;SDS011;49320;52.512;13.448;2023-02-26T17:23:07;3.97;;;2.00;;
63218;SDS011;49320;52.512;13.448;2023-02-26T17:25:41;3.40;;;2.05;;
63218;SDS011;49320;52.512;13.448;2023-02-26T17:28:14;4.53;;;2.08;;
63218;SDS011;49320;52.512;13.448;2023-02-26T17:30:47;2.67;;;1.73;;
63218;SDS011;49320;52.512;13.448;2023-02-26T17:33:14;2.88;;;1.77;;
63218;SDS011;49320;52.512;13.448;2023-02-26T17:35:41;3.42;;;1.80;;
63218;SDS011;49320;52.512;13.448;2023-02-26T17:38:09;2.40;;;1.67;;
63218;SDS011;49320;52.512;13.448;2023-02-26T17:40:38;2.75;;;1.50;;
63218;SDS011;49320;52.512;13.448;2023-02-26T17:43:08;4.82;;;1.92;;